sensor_id;sensor_type;location;lat;lon;timestamp;P1;durP1;ratioP1;P2;durP2;ratioP2
57307;SDS011;43152;50.968;18.214;2023-03-18T00:00:44;27.50;;;6.40;;
57307;SDS011;43152;50.968;18.214;2023-03-18T00:10:28;12.20;;;3.00;;
57307;SDS011;43152;50.968;18.214;2023-03-18T00:27:34;18.60;;;7.50;;
57307;SDS011;43152;50.968;18.214;2023-03-18T00:37:18;15.60;;;4.70;;
57307;SDS011;43152;50.968;18.214;2023-03-18T00:47:38;18.40;;;5.40;;
57307;SDS011;43152;50.968;18.214;2023-03-18T00:57:22;20.50;;;6.80;;
57307;SDS011;43152;50.968;18.214;2023-03-18T01:07:07;25.50;;;5.90;;
57307;SDS011;43152;50.968;18.214;2023-03-18T01:16:49;22.60;;;6.50;;
57307;SDS011;43152;50.968;18.214;2023-03-18T01:26:34;16.50;;;6.20;;
57307;SDS011;43152;50.968;18.214;2023-03-18T01:36:18;22.80;;;7.60;;
57307;SDS011;43152;50.968;18.214;2023-03-18T01:56:19;22.40;;;7.60;;
57307;SDS011;43152;50.968;18.214;2023-03-18T02:06:24;44.00;;;11.80;;
57307;SDS011;43152;50.968;18.214;2023-03-18T02:16:19;30.60;;;9.30;;
57307;SDS011;43152;50.968;18.214;2023-03-18T02:36:38;23.50;;;8.50;;
57307;SDS011;43152;50.968;18.214;2023-03-18T02:56:26;11.00;;;5.20;;
57307;SDS011;43152;50.968;18.214;2023-03-18T03:06:09;20.90;;;8.10;;
57307;SDS011;43152;50.968;18.214;2023-03-18T03:15:52;32.90;;;10.20;;
57307;SDS011;43152;50.968;18.214;2023-03-18T03:25:37;26.20;;;6.00;;
57307;SDS011;43152;50.968;18.214;2023-03-18T03:35:22;19.80;;;7.90;;
57307;SDS011;43152;50.968;18.214;2023-03-18T03:45:09;5.00;;;1.40;;
57307;SDS011;43152;50.968;18.214;2023-03-18T03:54:54;16.10;;;5.60;;
57307;SDS011;43152;50.968;18.214;2023-03-18T04:04:40;16.50;;;5.20;;
57307;SDS011;43152;50.968;18.214;2023-03-18T04:14:24;19.40;;;5.70;;
57307;SDS011;43152;50.968;18.214;2023-03-18T04:24:07;16.30;;;4.60;;
57307;SDS011;43152;50.968;18.214;2023-03-18T04:33:51;16.60;;;4.80;;
57307;SDS011;43152;50.968;18.214;2023-03-18T04:43:34;10.90;;;3.00;;
57307;SDS011;43152;50.968;18.214;2023-03-18T04:53:19;14.80;;;5.00;;
57307;SDS011;43152;50.968;18.214;2023-03-18T05:03:02;19.10;;;5.60;;
57307;SDS011;43152;50.968;18.214;2023-03-18T05:20:04;20.60;;;4.80;;
57307;SDS011;43152;50.968;18.214;2023-03-18T05:37:06;14.40;;;4.10;;
57307;SDS011;43152;50.968;18.214;2023-03-18T05:46:50;26.60;;;11.50;;
57307;SDS011;43152;50.968;18.214;2023-03-18T05:56:34;26.10;;;11.10;;
57307;SDS011;43152;50.968;18.214;2023-03-18T06:06:17;26.30;;;9.40;;
57307;SDS011;43152;50.968;18.214;2023-03-18T06:16:01;20.30;;;7.60;;
57307;SDS011;43152;50.968;18.214;2023-03-18T06:25:46;23.70;;;7.80;;
57307;SDS011;43152;50.968;18.214;2023-03-18T06:35:33;31.10;;;11.60;;
57307;SDS011;43152;50.968;18.214;2023-03-18T06:52:34;78.40;;;29.30;;
57307;SDS011;43152;50.968;18.214;2023-03-18T07:02:19;67.80;;;21.90;;
57307;SDS011;43152;50.968;18.214;2023-03-18T07:12:05;71.20;;;24.80;;
57307;SDS011;43152;50.968;18.214;2023-03-18T07:21:48;66.90;;;20.60;;
57307;SDS011;43152;50.968;18.214;2023-03-18T07:31:32;24.80;;;10.30;;
57307;SDS011;43152;50.968;18.214;2023-03-18T07:41:16;28.50;;;10.40;;
57307;SDS011;43152;50.968;18.214;2023-03-18T07:50:59;13.10;;;6.40;;
57307;SDS011;43152;50.968;18.214;2023-03-18T08:00:43;14.30;;;5.10;;
57307;SDS011;43152;50.968;18.214;2023-03-18T08:10:27;24.10;;;7.60;;
57307;SDS011;43152;50.968;18.214;2023-03-18T08:20:11;13.70;;;5.70;;
57307;SDS011;43152;50.968;18.214;2023-03-18T08:29:54;29.30;;;10.10;;
57307;SDS011;43152;50.968;18.214;2023-03-18T08:39:39;14.60;;;3.60;;
57307;SDS011;43152;50.968;18.214;2023-03-18T08:49:23;11.00;;;4.70;;
57307;SDS011;43152;50.968;18.214;2023-03-18T08:59:07;31.50;;;13.70;;
57307;SDS011;43152;50.968;18.214;2023-03-18T09:08:52;20.10;;;11.70;;
57307;SDS011;43152;50.968;18.214;2023-03-18T09:18:35;6.20;;;2.30;;
57307;SDS011;43152;50.968;18.214;2023-03-18T09:28:19;42.30;;;15.90;;
57307;SDS011;43152;50.968;18.214;2023-03-18T09:38:03;18.40;;;6.70;;
57307;SDS011;43152;50.968;18.214;2023-03-18T09:48:18;26.40;;;8.60;;
57307;SDS011;43152;50.968;18.214;2023-03-18T09:58:55;10.90;;;4.30;;
57307;SDS011;43152;50.968;18.214;2023-03-18T10:18:45;42.30;;;14.50;;
57307;SDS011;43152;50.968;18.214;2023-03-18T10:28:52;12.00;;;3.20;;
57307;SDS011;43152;50.968;18.214;2023-03-18T10:39:19;16.20;;;4.80;;
57307;SDS011;43152;50.968;18.214;2023-03-18T10:49:30;16.40;;;7.30;;
57307;SDS011;43152;50.968;18.214;2023-03-18T10:59:23;15.80;;;5.90;;
57307;SDS011;43152;50.968;18.214;2023-03-18T11:09:32;12.70;;;2.50;;
57307;SDS011;43152;50.968;18.214;2023-03-18T11:29:28;26.50;;;9.60;;
57307;SDS011;43152;50.968;18.214;2023-03-18T11:39:21;13.90;;;3.20;;
57307;SDS011;43152;50.968;18.214;2023-03-18T11:49:18;19.80;;;11.10;;
57307;SDS011;43152;50.968;18.214;2023-03-18T12:10:12;8.80;;;2.50;;
57307;SDS011;43152;50.968;18.214;2023-03-18T12:20:38;21.20;;;6.40;;
57307;SDS011;43152;50.968;18.214;2023-03-18T12:31:19;24.70;;;6.30;;
57307;SDS011;43152;50.968;18.214;2023-03-18T12:52:16;22.70;;;8.50;;
57307;SDS011;43152;50.968;18.214;2023-03-18T13:12:56;22.80;;;8.80;;
57307;SDS011;43152;50.968;18.214;2023-03-18T13:44:13;18.80;;;2.60;;
57307;SDS011;43152;50.968;18.214;2023-03-18T13:54:16;15.90;;;5.60;;
57307;SDS011;43152;50.968;18.214;2023-03-18T14:35:33;2.20;;;1.20;;
57307;SDS011;43152;50.968;18.214;2023-03-18T14:45:51;16.70;;;6.80;;
57307;SDS011;43152;50.968;18.214;2023-03-18T14:55:47;11.00;;;4.60;;
57307;SDS011;43152;50.968;18.214;2023-03-18T15:05:40;11.70;;;2.20;;
57307;SDS011;43152;50.968;18.214;2023-03-18T15:15:33;6.80;;;1.20;;
57307;SDS011;43152;50.968;18.214;2023-03-18T15:25:28;15.60;;;5.50;;
57307;SDS011;43152;50.968;18.214;2023-03-18T15:35:18;19.10;;;6.60;;
57307;SDS011;43152;50.968;18.214;2023-03-18T15:45:29;10.00;;;3.50;;
57307;SDS011;43152;50.968;18.214;2023-03-18T15:55:56;12.30;;;4.40;;
57307;SDS011;43152;50.968;18.214;2023-03-18T16:05:46;10.30;;;4.50;;
57307;SDS011;43152;50.968;18.214;2023-03-18T16:15:29;3.40;;;1.20;;
57307;SDS011;43152;50.968;18.214;2023-03-18T16:22:52;41.50;;;19.50;;
57307;SDS011;43152;50.968;18.214;2023-03-18T16:32:49;24.90;;;10.30;;
57307;SDS011;43152;50.968;18.214;2023-03-18T16:42:41;33.30;;;13.30;;
57307;SDS011;43152;50.968;18.214;2023-03-18T16:52:39;23.00;;;10.30;;
57307;SDS011;43152;50.968;18.214;2023-03-18T17:02:29;44.10;;;16.40;;
57307;SDS011;43152;50.968;18.214;2023-03-18T17:12:14;78.60;;;24.50;;
57307;SDS011;43152;50.968;18.214;2023-03-18T17:22:26;124.30;;;35.00;;
57307;SDS011;43152;50.968;18.214;2023-03-18T17:32:11;58.40;;;23.90;;
57307;SDS011;43152;50.968;18.214;2023-03-18T17:41:54;59.80;;;22.20;;
57307;SDS011;43152;50.968;18.214;2023-03-18T17:51:40;88.70;;;32.80;;
57307;SDS011;43152;50.968;18.214;2023-03-18T18:01:27;54.80;;;22.40;;
57307;SDS011;43152;50.968;18.214;2023-03-18T18:28:28;56.90;;;22.80;;
57307;SDS011;43152;50.968;18.214;2023-03-18T18:38:13;61.60;;;21.60;;
57307;SDS011;43152;50.968;18.214;2023-03-18T18:47:58;66.20;;;25.10;;
57307;SDS011;43152;50.968;18.214;2023-03-18T18:57:44;43.60;;;15.50;;
57307;SDS011;43152;50.968;18.214;2023-03-18T19:07:37;57.60;;;19.90;;
57307;SDS011;43152;50.968;18.214;2023-03-18T19:17:24;70.20;;;23.40;;
57307;SDS011;43152;50.968;18.214;2023-03-18T19:27:23;59.60;;;26.10;;
57307;SDS011;43152;50.968;18.214;2023-03-18T19:37:16;32.10;;;15.00;;
57307;SDS011;43152;50.968;18.214;2023-03-18T19:47:22;31.30;;;12.70;;
57307;SDS011;43152;50.968;18.214;2023-03-18T20:04:48;17.30;;;7.30;;
57307;SDS011;43152;50.968;18.214;2023-03-18T20:14:58;18.10;;;6.20;;
57307;SDS011;43152;50.968;18.214;2023-03-18T20:24:53;14.00;;;4.80;;
57307;SDS011;43152;50.968;18.214;2023-03-18T20:34:37;55.90;;;17.60;;
57307;SDS011;43152;50.968;18.214;2023-03-18T20:44:21;58.70;;;22.30;;
57307;SDS011;43152;50.968;18.214;2023-03-18T21:01:32;30.60;;;12.50;;
57307;SDS011;43152;50.968;18.214;2023-03-18T21:11:22;25.20;;;10.50;;
57307;SDS011;43152;50.968;18.214;2023-03-18T21:21:20;42.30;;;15.30;;
57307;SDS011;43152;50.968;18.214;2023-03-18T21:31:05;75.50;;;27.10;;
57307;SDS011;43152;50.968;18.214;2023-03-18T21:41:09;82.50;;;33.00;;
57307;SDS011;43152;50.968;18.214;2023-03-18T21:51:13;51.00;;;20.80;;
57307;SDS011;43152;50.968;18.214;2023-03-18T22:08:20;31.10;;;8.40;;
57307;SDS011;43152;50.968;18.214;2023-03-18T22:18:14;25.40;;;8.20;;
57307;SDS011;43152;50.968;18.214;2023-03-18T22:28:07;26.30;;;9.10;;
57307;SDS011;43152;50.968;18.214;2023-03-18T22:37:51;15.30;;;6.20;;
57307;SDS011;43152;50.968;18.214;2023-03-18T22:47:47;27.20;;;8.20;;
57307;SDS011;43152;50.968;18.214;2023-03-18T22:57:39;56.20;;;18.40;;
57307;SDS011;43152;50.968;18.214;2023-03-18T23:21:43;31.30;;;7.70;;
57307;SDS011;43152;50.968;18.214;2023-03-18T23:31:27;37.00;;;14.20;;
57307;SDS011;43152;50.968;18.214;2023-03-18T23:41:09;29.10;;;9.90;;
57307;SDS011;43152;50.968;18.214;2023-03-18T23:50:53;15.80;;;5.90;;
